VGT weather

North Las Vegas Airport
Las Vegas, Nevada, United States

Public forecast

Using degrees Fahrenheit for public forecast. Weather courtesy of forecast.io.

METAR (pilot weather report)

Retrieved 2019/03/25 13:53 UTC (33 minutes ago):

KVGT 251353Z 33003KT 10SM CLR 09/01 A3019 RMK AO2 SLP235 T00890006

TAF (pilot weather forecast)

Retrieved 2019/03/25 12:22 UTC (2 hours ago):

TAF KVGT 251120Z 2512/2612 33006KT P6SM FEW250 FM251700 13006KT P6SM FEW250 FM260200 25006KT P6SM FEW250